createdAt,value
2023-05-10T00:01:53.580Z,95343.66
2023-05-10T00:04:21.026Z,95350.19
2023-05-10T00:06:48.321Z,95346.84
2023-05-10T00:09:15.502Z,95344.25
2023-05-10T00:11:42.641Z,95342.81
2023-05-10T00:14:09.736Z,95358.13
2023-05-10T00:16:38.569Z,95356.38
2023-05-10T00:19:06.015Z,95342.59
2023-05-10T00:21:33.108Z,95345.69
2023-05-10T00:24:00.249Z,95347.41
2023-05-10T00:26:27.455Z,95343.28
2023-05-10T00:28:54.539Z,95338.16
2023-05-10T00:31:21.671Z,95339.72
2023-05-10T00:33:50.223Z,95338.53
2023-05-10T00:36:17.495Z,95341.38
2023-05-10T00:38:44.713Z,95345.38
2023-05-10T00:41:11.776Z,95344.34
2023-05-10T00:43:38.957Z,95339.41
2023-05-10T00:46:06.998Z,95336.81
2023-05-10T00:48:35.512Z,95329.63
2023-05-10T00:51:04.798Z,95342.84
2023-05-10T00:53:33.263Z,95342.47
2023-05-10T00:56:01.045Z,95337.44
2023-05-10T00:58:29.182Z,95343.22
2023-05-10T01:00:56.808Z,95345.88
2023-05-10T01:03:24.236Z,95342.91
2023-05-10T01:05:51.467Z,95333.88
2023-05-10T01:08:20.948Z,95334.44
2023-05-10T01:10:48.474Z,95335.22
2023-05-10T01:13:28.008Z,95337.59
2023-05-10T01:15:56.184Z,95332.81
2023-05-10T01:18:23.855Z,95343.59
2023-05-10T01:21:05.573Z,95340.63
2023-05-10T01:23:58.478Z,95338.91
2023-05-10T01:26:59.308Z,95341.50
2023-05-10T01:30:14.710Z,95337.38
2023-05-10T01:32:58.134Z,95337.25
2023-05-10T01:35:37.582Z,95335.22
2023-05-10T01:38:17.025Z,95340.66
2023-05-10T01:40:58.632Z,95336.84
2023-05-10T01:43:32.125Z,95335.19
2023-05-10T01:46:05.118Z,95340.78
2023-05-10T01:48:34.786Z,95346.38
2023-05-10T01:51:02.509Z,95344.63
2023-05-10T01:53:33.655Z,95348.94
2023-05-10T01:56:03.523Z,95345.25
2023-05-10T01:58:34.105Z,95344.97
2023-05-10T02:01:05.962Z,95348.16
2023-05-10T02:03:39.656Z,95340.63
2023-05-10T02:06:10.721Z,95352.63
2023-05-10T02:08:41.250Z,95355.06
2023-05-10T02:11:13.623Z,95351.50
2023-05-10T02:13:43.224Z,95351.59
2023-05-10T02:16:12.841Z,95351.03
2023-05-10T02:18:42.945Z,95350.06
2023-05-10T02:21:12.991Z,95355.22
2023-05-10T02:23:41.379Z,95345.41
2023-05-10T02:26:10.589Z,95353.69
2023-05-10T02:28:39.482Z,95349.03
2023-05-10T02:31:08.462Z,95341.44
2023-05-10T02:33:37.018Z,95349.38
2023-05-10T02:36:08.457Z,95347.31
2023-05-10T02:38:37.557Z,95347.28
2023-05-10T02:41:09.277Z,95355.06
2023-05-10T02:43:37.198Z,95352.13
2023-05-10T02:46:04.704Z,95353.75
2023-05-10T02:48:32.180Z,95364.28
2023-05-10T02:51:13.158Z,95361.06
2023-05-10T02:53:44.929Z,95367.88
2023-05-10T02:56:21.185Z,95370.28
2023-05-10T02:58:48.363Z,95370.81
2023-05-10T03:01:15.659Z,95380.22
2023-05-10T03:03:42.882Z,95379.09
2023-05-10T03:06:11.540Z,95387.19
2023-05-10T03:08:39.211Z,95388.81
2023-05-10T03:11:37.922Z,95385.19
2023-05-10T03:14:17.869Z,95392.25
2023-05-10T03:16:52.257Z,95400.03
2023-05-10T03:19:27.549Z,95398.84
2023-05-10T03:22:04.853Z,95398.84
2023-05-10T03:24:36.389Z,95390.81
2023-05-10T03:27:06.020Z,95384.78
2023-05-10T03:29:34.514Z,95391.44
2023-05-10T03:32:01.916Z,95399.59
2023-05-10T03:34:31.585Z,95396.25
2023-05-10T03:37:00.566Z,95394.81
2023-05-10T03:39:27.743Z,95388.78
2023-05-10T03:41:54.879Z,95393.75
2023-05-10T03:44:21.981Z,95397.91
2023-05-10T03:46:49.290Z,95402.94
2023-05-10T03:49:16.736Z,95403.75
2023-05-10T03:51:44.201Z,95411.06
2023-05-10T03:54:12.720Z,95404.81
2023-05-10T03:56:39.839Z,95409.28
2023-05-10T03:59:07.299Z,95401.81
2023-05-10T04:01:34.614Z,95405.44
2023-05-10T04:04:01.863Z,95411.38
2023-05-10T04:06:29.164Z,95407.69
2023-05-10T04:08:56.560Z,95415.53
2023-05-10T04:11:25.100Z,95411.28
2023-05-10T04:13:52.142Z,95409.81
2023-05-10T04:16:19.418Z,95404.78
2023-05-10T04:18:46.587Z,95407.91
2023-05-10T04:21:13.738Z,95413.59
2023-05-10T04:23:41.486Z,95411.38
2023-05-10T04:26:08.699Z,95406.03
2023-05-10T04:28:37.451Z,95400.91
2023-05-10T04:31:05.793Z,95399.47
2023-05-10T04:33:33.498Z,95401.97
2023-05-10T04:36:01.198Z,95396.00
2023-05-10T04:38:28.884Z,95395.06
2023-05-10T04:40:55.979Z,95399.63
2023-05-10T04:43:23.023Z,95395.47
2023-05-10T04:45:51.654Z,95398.19
2023-05-10T04:48:18.838Z,95395.63
2023-05-10T04:50:45.978Z,95392.19
2023-05-10T04:53:14.617Z,95397.88
2023-05-10T04:55:43.185Z,95392.25
2023-05-10T04:58:10.349Z,95391.38
2023-05-10T05:00:37.495Z,95396.66
2023-05-10T05:03:06.348Z,95400.25
2023-05-10T05:05:33.756Z,95397.53
2023-05-10T05:08:01.038Z,95399.13
2023-05-10T05:10:32.039Z,95396.66
2023-05-10T05:13:02.307Z,95396.00
2023-05-10T05:15:31.321Z,95399.44
2023-05-10T05:18:01.465Z,95396.16
2023-05-10T05:20:33.413Z,95408.94
2023-05-10T05:23:00.499Z,95413.31
2023-05-10T05:25:27.680Z,95416.56
2023-05-10T05:27:55.276Z,95416.00
2023-05-10T05:30:22.338Z,95418.81
2023-05-10T05:32:49.431Z,95415.69
2023-05-10T05:35:16.739Z,95413.53
2023-05-10T05:37:45.528Z,95422.22
2023-05-10T05:40:14.386Z,95416.16
2023-05-10T05:42:41.496Z,95418.56
2023-05-10T05:45:10.236Z,95423.84
2023-05-10T05:47:37.666Z,95425.06
2023-05-10T05:50:05.985Z,95434.81
2023-05-10T05:52:33.155Z,95431.22
2023-05-10T05:55:01.920Z,95431.31
2023-05-10T05:57:29.077Z,95427.50
2023-05-10T05:59:56.197Z,95425.69
2023-05-10T06:02:23.641Z,95430.50
2023-05-10T06:04:51.480Z,95424.50
2023-05-10T06:07:18.701Z,95420.91
2023-05-10T06:09:46.035Z,95417.63
2023-05-10T06:12:14.641Z,95423.72
2023-05-10T06:14:41.776Z,95419.09
2023-05-10T06:17:08.938Z,95431.34
2023-05-10T06:19:36.142Z,95427.81
2023-05-10T06:22:03.339Z,95429.78
2023-05-10T06:24:30.468Z,95426.31
2023-05-10T06:26:57.701Z,95429.72
2023-05-10T06:29:26.439Z,95427.06
2023-05-10T06:31:53.613Z,95427.31
2023-05-10T06:34:20.754Z,95427.97
2023-05-10T06:36:47.959Z,95428.06
2023-05-10T06:39:15.118Z,95423.44
2023-05-10T06:41:42.280Z,95423.19
2023-05-10T06:44:09.350Z,95435.03
2023-05-10T06:46:38.129Z,95432.31
2023-05-10T06:49:05.301Z,95432.63
2023-05-10T06:51:32.414Z,95426.09
2023-05-10T06:53:59.661Z,95429.53
2023-05-10T06:56:26.866Z,95436.28
2023-05-10T06:58:54.057Z,95434.75
2023-05-10T07:01:21.303Z,95430.63
2023-05-10T07:03:51.919Z,95429.38
2023-05-10T07:06:32.171Z,95433.56
2023-05-10T07:09:00.483Z,95438.94
2023-05-10T07:11:27.646Z,95434.25
2023-05-10T07:13:54.659Z,95435.78
2023-05-10T07:16:21.853Z,95437.56
2023-05-10T07:18:50.457Z,95431.88
2023-05-10T07:21:17.631Z,95430.75
2023-05-10T07:23:45.316Z,95441.16
2023-05-10T07:26:12.655Z,95444.38
2023-05-10T07:28:39.782Z,95448.56
2023-05-10T07:31:07.043Z,95446.94
2023-05-10T07:33:35.480Z,95451.47
2023-05-10T07:36:04.238Z,95454.69
2023-05-10T07:38:31.365Z,95449.06
2023-05-10T07:40:58.459Z,95453.16
2023-05-10T07:43:25.636Z,95455.09
2023-05-10T07:45:55.389Z,95453.88
2023-05-10T07:48:23.527Z,95459.09
2023-05-10T07:50:50.648Z,95455.25
2023-05-10T07:53:19.315Z,95457.75
2023-05-10T07:55:51.537Z,95460.72
2023-05-10T07:58:18.778Z,95461.69
2023-05-10T08:00:45.927Z,95461.69
2023-05-10T08:03:13.228Z,95456.81
2023-05-10T08:05:40.574Z,95460.50
2023-05-10T08:08:07.657Z,95454.81
2023-05-10T08:10:36.395Z,95463.59
2023-05-10T08:13:03.532Z,95462.72
2023-05-10T08:15:30.739Z,95455.88
2023-05-10T08:17:58.313Z,95453.75
2023-05-10T08:20:25.804Z,95458.41
2023-05-10T08:22:52.973Z,95462.84
2023-05-10T08:25:20.314Z,95462.97
2023-05-10T08:27:49.077Z,95459.50
2023-05-10T08:30:16.378Z,95449.38
2023-05-10T08:32:43.530Z,95450.25
2023-05-10T08:35:10.802Z,95459.50
2023-05-10T08:37:38.057Z,95461.09
2023-05-10T08:40:06.567Z,95467.03
2023-05-10T08:42:37.286Z,95453.25
2023-05-10T08:45:09.490Z,95464.72
2023-05-10T08:47:38.947Z,95466.81
2023-05-10T08:50:08.689Z,95462.97
2023-05-10T08:52:41.715Z,95466.69
2023-05-10T08:55:09.672Z,95466.13
2023-05-10T08:57:38.076Z,95468.59
2023-05-10T09:00:08.799Z,95466.19
2023-05-10T09:02:38.230Z,95474.69
2023-05-10T09:05:06.743Z,95467.13
2023-05-10T09:07:35.865Z,95464.47
2023-05-10T09:10:05.407Z,95474.34
2023-05-10T09:12:32.698Z,95473.22
2023-05-10T09:15:01.382Z,95479.75
2023-05-10T09:17:31.690Z,95473.00
2023-05-10T09:19:59.565Z,95481.16
2023-05-10T09:22:26.797Z,95474.06
2023-05-10T09:25:05.592Z,95476.53
2023-05-10T09:27:32.713Z,95482.09
2023-05-10T09:29:59.800Z,95480.44
2023-05-10T09:32:39.795Z,95476.97
2023-05-10T09:35:11.739Z,95473.63
2023-05-10T09:37:41.036Z,95472.66
2023-05-10T09:40:12.248Z,95477.59
2023-05-10T09:42:40.155Z,95472.50
2023-05-10T09:45:10.316Z,95471.09
2023-05-10T09:47:38.897Z,95482.91
2023-05-10T09:50:07.379Z,95475.88
2023-05-10T09:52:48.917Z,95483.97
2023-05-10T09:55:16.849Z,95478.63
2023-05-10T09:57:44.378Z,95477.69
2023-05-10T10:00:17.437Z,95478.69
2023-05-10T10:02:47.394Z,95477.78
2023-05-10T10:05:15.646Z,95484.91
2023-05-10T10:07:43.411Z,95477.06
2023-05-10T10:10:11.264Z,95483.28
2023-05-10T10:12:38.698Z,95482.34
2023-05-10T10:15:08.040Z,95478.72
2023-05-10T10:17:37.696Z,95477.22
2023-05-10T10:20:10.472Z,95473.75
2023-05-10T10:22:39.240Z,95480.16
2023-05-10T10:25:07.985Z,95473.16
2023-05-10T10:27:46.459Z,95469.00
2023-05-10T10:30:26.858Z,95467.81
2023-05-10T10:33:48.061Z,95464.03
2023-05-10T10:36:17.178Z,95471.38
2023-05-10T10:39:00.433Z,95477.00
2023-05-10T10:41:33.298Z,95467.47
2023-05-10T10:44:26.146Z,95470.97
2023-05-10T10:47:05.854Z,95456.84
2023-05-10T10:49:34.334Z,95460.56
2023-05-10T10:52:24.375Z,95458.66
2023-05-10T10:54:52.482Z,95457.84
2023-05-10T10:57:21.026Z,95463.44
2023-05-10T10:59:48.501Z,95467.22
2023-05-10T11:02:35.638Z,95466.66
2023-05-10T11:05:34.462Z,95463.22
2023-05-10T11:08:12.748Z,95458.97
2023-05-10T11:10:41.259Z,95461.34
2023-05-10T11:13:10.315Z,95461.09
2023-05-10T11:15:39.745Z,95452.03
2023-05-10T11:18:20.345Z,95454.16
2023-05-10T11:20:52.424Z,95455.75
2023-05-10T11:23:21.001Z,95451.50
2023-05-10T11:25:50.239Z,95447.75
2023-05-10T11:28:19.196Z,95450.38
2023-05-10T11:30:46.585Z,95446.72
2023-05-10T11:33:18.360Z,95452.84
2023-05-10T11:35:45.604Z,95455.75
2023-05-10T11:38:14.121Z,95450.44
2023-05-10T11:40:42.970Z,95453.63
2023-05-10T11:43:11.122Z,95450.44
2023-05-10T11:45:38.484Z,95445.34
2023-05-10T11:48:06.112Z,95456.56
2023-05-10T11:50:33.784Z,95448.84
2023-05-10T11:53:00.971Z,95451.50
2023-05-10T11:55:28.208Z,95456.81
2023-05-10T11:58:01.233Z,95454.41
2023-05-10T12:00:29.237Z,95453.63
2023-05-10T12:02:56.636Z,95455.22
2023-05-10T12:05:24.480Z,95446.16
2023-05-10T12:07:51.692Z,95450.72
2023-05-10T12:10:27.069Z,95441.91
2023-05-10T12:12:54.195Z,95451.78
2023-05-10T12:15:24.423Z,95446.19
2023-05-10T12:17:52.553Z,95458.97
2023-05-10T12:20:22.348Z,95455.47
2023-05-10T12:22:52.795Z,95456.28
2023-05-10T12:25:21.415Z,95450.91
2023-05-10T12:30:40.681Z,95454.69
2023-05-10T12:33:13.105Z,95460.78
2023-05-10T12:35:48.374Z,95452.03
2023-05-10T12:38:27.881Z,95453.63
2023-05-10T12:40:55.018Z,95454.69
2023-05-10T12:43:22.174Z,95453.63
2023-05-10T12:45:50.884Z,95461.09
2023-05-10T12:48:17.986Z,95458.59
2023-05-10T12:50:45.243Z,95460.72
2023-05-10T12:53:12.718Z,95462.78
2023-05-10T12:55:39.753Z,95457.75
2023-05-10T12:58:06.798Z,95456.16
2023-05-10T13:00:33.931Z,95463.91
2023-05-10T13:03:04.852Z,95457.22
2023-05-10T13:05:32.654Z,95468.06
2023-05-10T13:08:00.334Z,95463.03
2023-05-10T13:10:27.589Z,95463.34
2023-05-10T13:12:54.934Z,95463.16
2023-05-10T13:15:22.190Z,95462.56
2023-05-10T13:17:49.347Z,95455.66
2023-05-10T13:20:18.453Z,95465.72
2023-05-10T13:22:46.059Z,95464.22
2023-05-10T13:25:14.137Z,95467.19
2023-05-10T13:27:41.554Z,95475.31
2023-05-10T13:30:09.789Z,95470.47
2023-05-10T13:32:37.331Z,95471.47
2023-05-10T13:35:05.652Z,95470.00
2023-05-10T13:37:34.115Z,95461.47
2023-05-10T13:40:01.122Z,95465.66
2023-05-10T13:42:28.210Z,95468.50
2023-05-10T13:44:55.271Z,95466.88
2023-05-10T13:47:22.433Z,95462.63
2023-05-10T13:49:49.551Z,95462.16
2023-05-10T13:52:16.698Z,95463.41
2023-05-10T13:54:45.171Z,95465.03
2023-05-10T13:57:12.176Z,95461.91
2023-05-10T13:59:39.382Z,95462.03
2023-05-10T14:02:07.236Z,95461.81
2023-05-10T14:04:34.613Z,95456.25
2023-05-10T14:07:01.711Z,95462.69
2023-05-10T14:09:28.734Z,95454.16
2023-05-10T14:11:57.274Z,95457.81
2023-05-10T14:14:24.393Z,95454.63
2023-05-10T14:16:51.588Z,95468.28
2023-05-10T14:19:18.860Z,95466.44
2023-05-10T14:21:46.006Z,95459.28
2023-05-10T14:24:13.118Z,95456.97
2023-05-10T14:26:40.271Z,95463.00
2023-05-10T14:29:10.036Z,95457.75
2023-05-10T14:31:39.243Z,95457.00
2023-05-10T14:34:06.629Z,95450.97
2023-05-10T14:36:33.938Z,95451.31
2023-05-10T14:39:00.980Z,95448.38
2023-05-10T14:41:28.076Z,95455.03
2023-05-10T14:43:55.162Z,95450.78
2023-05-10T14:46:23.639Z,95457.09
2023-05-10T14:48:51.110Z,95459.75
2023-05-10T14:51:18.307Z,95458.31
2023-05-10T14:53:45.360Z,95464.59
2023-05-10T14:56:12.540Z,95457.53
2023-05-10T14:58:39.567Z,95456.47
2023-05-10T15:01:06.928Z,95459.66
2023-05-10T15:03:36.265Z,95456.38
2023-05-10T15:06:04.459Z,95459.63
2023-05-10T15:08:31.530Z,95455.66
2023-05-10T15:10:58.627Z,95455.66
2023-05-10T15:13:25.786Z,95460.75
2023-05-10T15:15:53.107Z,95456.16
2023-05-10T15:18:20.280Z,95458.28
2023-05-10T15:20:49.211Z,95460.38
2023-05-10T15:23:16.786Z,95454.72
2023-05-10T15:25:44.134Z,95466.88
2023-05-10T15:28:11.145Z,95466.88
2023-05-10T15:30:39.166Z,95464.25
2023-05-10T15:33:06.431Z,95464.69
2023-05-10T15:35:33.918Z,95465.81
2023-05-10T15:38:02.486Z,95465.13
2023-05-10T15:40:29.617Z,95471.00
2023-05-10T15:42:56.690Z,95460.09
2023-05-10T15:45:23.735Z,95469.44
2023-05-10T15:47:50.914Z,95465.97
2023-05-10T15:50:18.144Z,95474.06
2023-05-10T15:52:45.356Z,95468.19
2023-05-10T15:55:14.285Z,95474.84
2023-05-10T15:57:42.771Z,95479.53
2023-05-10T16:00:12.767Z,95467.66
2023-05-10T16:02:40.315Z,95473.72
2023-05-10T16:05:08.778Z,95472.28
2023-05-10T16:07:36.168Z,95471.00
2023-05-10T16:10:03.622Z,95470.78
2023-05-10T16:12:32.422Z,95477.63
2023-05-10T16:14:59.524Z,95476.59
2023-05-10T16:17:26.904Z,95484.00
2023-05-10T16:19:54.658Z,95476.97
2023-05-10T16:22:21.926Z,95479.06
2023-05-10T16:24:49.261Z,95469.78
2023-05-10T16:27:16.537Z,95470.34
2023-05-10T16:29:45.186Z,95471.66
2023-05-10T16:32:12.263Z,95480.88
2023-05-10T16:34:39.508Z,95474.47
2023-05-10T16:37:06.727Z,95482.75
2023-05-10T16:39:33.856Z,95481.13
2023-05-10T16:42:01.175Z,95476.13
2023-05-10T16:44:28.278Z,95471.75
2023-05-10T16:46:56.780Z,95479.16
2023-05-10T16:49:26.281Z,95478.63
2023-05-10T16:51:53.578Z,95474.38
2023-05-10T16:54:20.928Z,95467.38
2023-05-10T16:56:48.168Z,95465.88
2023-05-10T16:59:15.152Z,95470.06
2023-05-10T17:01:42.327Z,95471.09
2023-05-10T17:04:10.909Z,95467.59
2023-05-10T17:06:38.075Z,95473.84
2023-05-10T17:09:05.599Z,95466.63
2023-05-10T17:11:33.091Z,95471.94
2023-05-10T17:14:01.760Z,95476.38
2023-05-10T17:16:29.859Z,95479.16
2023-05-10T17:18:57.193Z,95480.34
2023-05-10T17:21:25.827Z,95478.66
2023-05-10T17:23:52.958Z,95472.09
2023-05-10T17:26:20.103Z,95475.66
2023-05-10T17:28:47.265Z,95474.41
2023-05-10T17:31:14.503Z,95467.03
2023-05-10T17:33:41.723Z,95472.28
2023-05-10T17:36:09.115Z,95458.06
2023-05-10T17:38:37.992Z,95471.94
2023-05-10T17:41:05.080Z,95464.38
2023-05-10T17:43:32.279Z,95466.47
2023-05-10T17:45:59.616Z,95464.97
2023-05-10T17:48:26.922Z,95473.06
2023-05-10T17:50:54.013Z,95474.28
2023-05-10T17:53:21.321Z,95465.41
2023-05-10T17:55:52.282Z,95477.88
2023-05-10T17:58:19.618Z,95481.06
2023-05-10T18:00:46.833Z,95469.28
2023-05-10T18:03:14.232Z,95475.84
2023-05-10T18:05:41.581Z,95475.22
2023-05-10T18:08:08.860Z,95478.28
2023-05-10T18:10:38.172Z,95482.41
2023-05-10T18:13:09.022Z,95484.13
2023-05-10T18:15:36.795Z,95483.25
2023-05-10T18:18:05.047Z,95482.53
2023-05-10T18:20:32.314Z,95483.34
2023-05-10T18:22:59.539Z,95479.22
2023-05-10T18:25:26.657Z,95482.34
2023-05-10T18:27:54.021Z,95486.50
2023-05-10T18:30:22.696Z,95489.63
2023-05-10T18:32:50.025Z,95491.41
2023-05-10T18:35:17.310Z,95486.25
2023-05-10T18:37:44.532Z,95488.91
2023-05-10T18:40:12.237Z,95490.97
2023-05-10T18:42:39.450Z,95494.09
2023-05-10T18:45:08.380Z,95496.16
2023-05-10T18:47:36.993Z,95495.84
2023-05-10T18:50:05.076Z,95497.13
2023-05-10T18:52:32.280Z,95496.34
2023-05-10T18:54:59.315Z,95495.53
2023-05-10T18:57:26.439Z,95495.44
2023-05-10T18:59:53.778Z,95495.09
2023-05-10T19:02:20.959Z,95501.09
2023-05-10T19:04:49.598Z,95497.09
2023-05-10T19:07:16.979Z,95493.88
2023-05-10T19:09:44.709Z,95497.72
2023-05-10T19:12:12.097Z,95501.38
2023-05-10T19:14:39.420Z,95505.75
2023-05-10T19:17:06.798Z,95498.53
2023-05-10T19:19:35.298Z,95499.19
2023-05-10T19:22:05.089Z,95508.66
2023-05-10T19:24:33.837Z,95506.78
2023-05-10T19:27:02.317Z,95510.81
2023-05-10T19:29:29.757Z,95516.59
2023-05-10T19:31:58.047Z,95519.09
2023-05-10T19:34:30.290Z,95516.91
2023-05-10T19:37:00.589Z,95515.53
2023-05-10T19:39:30.332Z,95528.50
2023-05-10T19:41:57.677Z,95522.66
2023-05-10T19:44:25.938Z,95523.94
2023-05-10T19:46:53.894Z,95525.66
2023-05-10T19:49:21.192Z,95529.47
2023-05-10T19:51:48.457Z,95516.16
2023-05-10T19:54:15.573Z,95518.09
2023-05-10T19:56:44.178Z,95524.56
2023-05-10T19:59:11.319Z,95525.25
2023-05-10T20:01:38.420Z,95527.22
2023-05-10T20:04:05.651Z,95527.88
2023-05-10T20:06:32.776Z,95526.97
2023-05-10T20:08:59.988Z,95532.59
2023-05-10T20:11:27.116Z,95526.31
2023-05-10T20:13:55.873Z,95529.50
2023-05-10T20:16:25.931Z,95523.78
2023-05-10T20:18:54.508Z,95529.16
2023-05-10T20:21:21.900Z,95532.94
2023-05-10T20:23:49.017Z,95533.75
2023-05-10T20:26:16.452Z,95533.38
2023-05-10T20:28:43.833Z,95529.38
2023-05-10T20:31:12.556Z,95527.00
2023-05-10T20:33:39.757Z,95525.94
2023-05-10T20:36:07.437Z,95528.22
2023-05-10T20:38:34.678Z,95526.97
2023-05-10T20:41:01.841Z,95534.22
2023-05-10T20:43:29.155Z,95530.09
2023-05-10T20:45:56.604Z,95525.59
2023-05-10T20:48:25.168Z,95538.44
2023-05-10T20:50:52.317Z,95537.53
2023-05-10T20:53:19.538Z,95536.38
2023-05-10T20:55:46.700Z,95532.81
2023-05-10T20:58:13.951Z,95531.00
2023-05-10T21:00:41.958Z,95532.34
2023-05-10T21:03:09.228Z,95534.66
2023-05-10T21:05:38.141Z,95532.03
2023-05-10T21:08:06.361Z,95536.97
2023-05-10T21:10:33.679Z,95534.66
2023-05-10T21:13:00.860Z,95542.13
2023-05-10T21:15:28.057Z,95534.91
2023-05-10T21:17:55.111Z,95533.41
2023-05-10T21:20:22.336Z,95535.13
2023-05-10T21:22:51.002Z,95537.53
2023-05-10T21:25:18.471Z,95527.06
2023-05-10T21:27:45.616Z,95531.81
2023-05-10T21:30:13.325Z,95530.19
2023-05-10T21:32:40.706Z,95527.31
2023-05-10T21:35:09.158Z,95528.03
2023-05-10T21:37:36.381Z,95526.88
2023-05-10T21:40:06.176Z,95522.28
2023-05-10T21:42:33.419Z,95524.78
2023-05-10T21:45:00.594Z,95518.00
2023-05-10T21:47:27.713Z,95513.44
2023-05-10T21:49:54.922Z,95516.78
2023-05-10T21:52:22.067Z,95520.09
2023-05-10T21:54:49.298Z,95521.13
2023-05-10T21:57:17.903Z,95521.13
2023-05-10T21:59:45.100Z,95517.91
2023-05-10T22:02:12.434Z,95513.91
2023-05-10T22:04:39.679Z,95512.97
2023-05-10T22:07:06.849Z,95519.72
2023-05-10T22:09:34.022Z,95513.63
2023-05-10T22:12:01.169Z,95517.31
2023-05-10T22:14:30.078Z,95513.28
2023-05-10T22:16:57.178Z,95512.13
2023-05-10T22:19:24.466Z,95518.56
2023-05-10T22:21:52.162Z,95514.63
2023-05-10T22:24:19.479Z,95517.16
2023-05-10T22:26:46.588Z,95513.28
2023-05-10T22:29:13.779Z,95517.75
2023-05-10T22:31:42.410Z,95511.41
2023-05-10T22:34:09.579Z,95515.59
2023-05-10T22:36:36.729Z,95508.13
2023-05-10T22:39:03.984Z,95514.63
2023-05-10T22:41:31.197Z,95513.97
2023-05-10T22:43:58.795Z,95514.31
2023-05-10T22:46:25.954Z,95512.38
2023-05-10T22:48:55.052Z,95515.19
2023-05-10T22:51:22.414Z,95507.38
2023-05-10T22:53:49.558Z,95508.16
2023-05-10T22:56:16.818Z,95505.06
2023-05-10T22:58:44.183Z,95508.97
2023-05-10T23:01:11.296Z,95504.22
2023-05-10T23:03:38.557Z,95507.41
2023-05-10T23:06:07.436Z,95502.38
2023-05-10T23:08:34.556Z,95508.72
2023-05-10T23:11:01.680Z,95501.69
2023-05-10T23:13:28.836Z,95504.41
2023-05-10T23:15:55.959Z,95501.00
2023-05-10T23:18:23.097Z,95504.06
2023-05-10T23:20:50.296Z,95503.00
2023-05-10T23:23:18.990Z,95502.19
2023-05-10T23:25:46.276Z,95501.88
2023-05-10T23:28:13.376Z,95500.53
2023-05-10T23:30:40.433Z,95498.34
2023-05-10T23:33:07.529Z,95493.56
2023-05-10T23:35:34.638Z,95487.50
2023-05-10T23:38:01.816Z,95498.78
2023-05-10T23:40:30.442Z,95492.09
2023-05-10T23:42:57.578Z,95487.97
2023-05-10T23:45:24.732Z,95489.78
2023-05-10T23:47:52.114Z,95485.75
2023-05-10T23:50:19.529Z,95490.53
2023-05-10T23:52:46.801Z,95478.06
2023-05-10T23:55:14.281Z,95485.06
2023-05-10T23:57:43.042Z,95481.53
